Virtual Norwegian is not affiliated with Norwegian Air Shuttle in any way.
If you are looking for the real "Norwegian", or you wish to book Norwegian flights, please visit Norwegian.com


We use cookies to ensure you get the best experience on our website.   ACCEPT

EDDB - SXF - Berlin (Schonefeld)

General Info Alternate Airport
ICAO: EDDB Elevation: 157 ft ICAO: EDDT
IATA: SXF Country: Germany IATA: TXL
City: Berlin Charts: Log in to view charts City: Berlin
Name: Schonefeld Hub: No Name Tegel
General Info
ICAO: EDDB
IATA: SXF
City: Berlin
Name: Schonefeld
Elevation: 157 ft
Country: Germany
Charts: Log in to view charts
Hub: No
 
Alternate Airport
ICAO: EDDT
IATA: TXL
City: Berlin
Name: Tegel

Weather
221750Z 08005KT 8000 NSC M02/M03 Q1027 R07/19//95 TEMPO 4000 BR BKN008
Weather
221750Z 08005KT 8000 NSC M02/M03 Q1027 R07/19//95 TEMPO 4000 BR BKN008

Runway Info
07L
Length ILS/LOC Course
3600 m 110.70 066
25R
Length ILS/LOC Course
3600 m 109.90 246

NOTAMs
NOTAMs currently unavailable.
NOTAMs
NOTAMs currently unavailable

Route map
Airport
Airport (hub)